sensor_id;sensor_type;location;lat;lon;timestamp;P1;durP1;ratioP1;P2;durP2;ratioP2
51852;SDS011;37894;53.172;6.598;2023-04-25T00:02:06;18.30;;;3.97;;
51852;SDS011;37894;53.172;6.598;2023-04-25T00:04:33;20.58;;;4.38;;
51852;SDS011;37894;53.172;6.598;2023-04-25T00:06:59;18.50;;;4.53;;
51852;SDS011;37894;53.172;6.598;2023-04-25T00:09:28;23.23;;;4.45;;
51852;SDS011;37894;53.172;6.598;2023-04-25T00:11:54;22.52;;;4.35;;
51852;SDS011;37894;53.172;6.598;2023-04-25T00:14:20;21.95;;;4.25;;
51852;SDS011;37894;53.172;6.598;2023-04-25T00:16:46;22.85;;;4.57;;
51852;SDS011;37894;53.172;6.598;2023-04-25T00:19:11;18.55;;;3.65;;
51852;SDS011;37894;53.172;6.598;2023-04-25T00:21:38;24.98;;;4.65;;
51852;SDS011;37894;53.172;6.598;2023-04-25T00:24:07;23.70;;;4.65;;
51852;SDS011;37894;53.172;6.598;2023-04-25T00:26:34;21.13;;;4.68;;
51852;SDS011;37894;53.172;6.598;2023-04-25T00:29:01;20.95;;;4.28;;
51852;SDS011;37894;53.172;6.598;2023-04-25T00:31:27;20.67;;;4.75;;
51852;SDS011;37894;53.172;6.598;2023-04-25T00:33:54;20.35;;;4.20;;
51852;SDS011;37894;53.172;6.598;2023-04-25T00:36:19;20.73;;;4.50;;
51852;SDS011;37894;53.172;6.598;2023-04-25T00:38:46;24.10;;;4.53;;
51852;SDS011;37894;53.172;6.598;2023-04-25T00:41:11;12.85;;;3.53;;
51852;SDS011;37894;53.172;6.598;2023-04-25T00:43:37;15.10;;;3.35;;
51852;SDS011;37894;53.172;6.598;2023-04-25T00:46:03;21.27;;;3.88;;
51852;SDS011;37894;53.172;6.598;2023-04-25T00:48:29;19.33;;;4.30;;
51852;SDS011;37894;53.172;6.598;2023-04-25T00:50:57;23.77;;;3.65;;
51852;SDS011;37894;53.172;6.598;2023-04-25T00:53:24;14.65;;;3.72;;
51852;SDS011;37894;53.172;6.598;2023-04-25T00:55:52;24.75;;;4.53;;
51852;SDS011;37894;53.172;6.598;2023-04-25T00:58:19;13.27;;;3.65;;
51852;SDS011;37894;53.172;6.598;2023-04-25T01:00:46;12.93;;;2.95;;
51852;SDS011;37894;53.172;6.598;2023-04-25T01:03:14;26.40;;;5.47;;
51852;SDS011;37894;53.172;6.598;2023-04-25T01:05:41;10.98;;;3.00;;
51852;SDS011;37894;53.172;6.598;2023-04-25T01:08:08;19.15;;;3.17;;
51852;SDS011;37894;53.172;6.598;2023-04-25T01:10:34;16.60;;;3.58;;
51852;SDS011;37894;53.172;6.598;2023-04-25T01:13:00;18.75;;;3.25;;
51852;SDS011;37894;53.172;6.598;2023-04-25T01:15:26;12.73;;;3.22;;
51852;SDS011;37894;53.172;6.598;2023-04-25T01:17:51;14.40;;;2.92;;
51852;SDS011;37894;53.172;6.598;2023-04-25T01:20:18;15.95;;;2.85;;
51852;SDS011;37894;53.172;6.598;2023-04-25T01:22:48;10.07;;;3.25;;
51852;SDS011;37894;53.172;6.598;2023-04-25T01:25:14;12.20;;;2.70;;
51852;SDS011;37894;53.172;6.598;2023-04-25T01:27:41;14.65;;;2.85;;
51852;SDS011;37894;53.172;6.598;2023-04-25T01:30:07;11.70;;;2.75;;
51852;SDS011;37894;53.172;6.598;2023-04-25T01:32:33;15.63;;;3.53;;
51852;SDS011;37894;53.172;6.598;2023-04-25T01:35:07;14.35;;;3.28;;
51852;SDS011;37894;53.172;6.598;2023-04-25T01:37:38;15.52;;;3.10;;
51852;SDS011;37894;53.172;6.598;2023-04-25T01:40:05;14.27;;;3.80;;
51852;SDS011;37894;53.172;6.598;2023-04-25T01:42:32;18.63;;;2.78;;
51852;SDS011;37894;53.172;6.598;2023-04-25T01:44:59;10.73;;;2.40;;
51852;SDS011;37894;53.172;6.598;2023-04-25T01:47:25;8.82;;;2.92;;
51852;SDS011;37894;53.172;6.598;2023-04-25T01:49:51;12.60;;;2.55;;
51852;SDS011;37894;53.172;6.598;2023-04-25T01:52:16;10.73;;;2.47;;
51852;SDS011;37894;53.172;6.598;2023-04-25T01:54:42;12.13;;;2.92;;
51852;SDS011;37894;53.172;6.598;2023-04-25T01:57:12;14.18;;;2.63;;
51852;SDS011;37894;53.172;6.598;2023-04-25T01:59:38;15.40;;;2.45;;
51852;SDS011;37894;53.172;6.598;2023-04-25T02:02:05;17.30;;;2.85;;
51852;SDS011;37894;53.172;6.598;2023-04-25T02:04:32;13.23;;;3.03;;
51852;SDS011;37894;53.172;6.598;2023-04-25T02:06:57;12.50;;;2.75;;
51852;SDS011;37894;53.172;6.598;2023-04-25T02:09:24;15.32;;;3.10;;
51852;SDS011;37894;53.172;6.598;2023-04-25T02:11:50;14.93;;;3.30;;
51852;SDS011;37894;53.172;6.598;2023-04-25T02:14:15;18.25;;;3.35;;
51852;SDS011;37894;53.172;6.598;2023-04-25T02:16:41;12.13;;;2.40;;
51852;SDS011;37894;53.172;6.598;2023-04-25T02:19:09;17.73;;;2.92;;
51852;SDS011;37894;53.172;6.598;2023-04-25T02:21:35;18.75;;;3.33;;
51852;SDS011;37894;53.172;6.598;2023-04-25T02:24:01;17.73;;;3.13;;
51852;SDS011;37894;53.172;6.598;2023-04-25T02:26:27;12.13;;;2.30;;
51852;SDS011;37894;53.172;6.598;2023-04-25T02:28:53;15.05;;;2.50;;
51852;SDS011;37894;53.172;6.598;2023-04-25T02:31:19;15.35;;;2.92;;
51852;SDS011;37894;53.172;6.598;2023-04-25T02:33:45;14.05;;;3.22;;
51852;SDS011;37894;53.172;6.598;2023-04-25T02:36:11;11.27;;;2.70;;
51852;SDS011;37894;53.172;6.598;2023-04-25T02:38:37;20.50;;;2.60;;
51852;SDS011;37894;53.172;6.598;2023-04-25T02:41:03;14.48;;;2.40;;
51852;SDS011;37894;53.172;6.598;2023-04-25T02:43:28;12.52;;;3.15;;
51852;SDS011;37894;53.172;6.598;2023-04-25T02:45:54;10.85;;;2.95;;
51852;SDS011;37894;53.172;6.598;2023-04-25T02:48:20;9.50;;;2.88;;
51852;SDS011;37894;53.172;6.598;2023-04-25T02:50:47;9.65;;;2.78;;
51852;SDS011;37894;53.172;6.598;2023-04-25T02:53:12;13.38;;;2.42;;
51852;SDS011;37894;53.172;6.598;2023-04-25T02:55:38;17.08;;;4.28;;
51852;SDS011;37894;53.172;6.598;2023-04-25T02:58:04;23.45;;;3.03;;
51852;SDS011;37894;53.172;6.598;2023-04-25T03:00:30;15.02;;;2.75;;
51852;SDS011;37894;53.172;6.598;2023-04-25T03:02:56;11.88;;;3.22;;
51852;SDS011;37894;53.172;6.598;2023-04-25T03:05:22;9.63;;;2.78;;
51852;SDS011;37894;53.172;6.598;2023-04-25T03:07:48;15.55;;;2.47;;
51852;SDS011;37894;53.172;6.598;2023-04-25T03:10:14;19.70;;;3.28;;
51852;SDS011;37894;53.172;6.598;2023-04-25T03:12:40;12.25;;;2.80;;
51852;SDS011;37894;53.172;6.598;2023-04-25T03:15:06;8.23;;;2.15;;
51852;SDS011;37894;53.172;6.598;2023-04-25T03:17:32;13.40;;;2.50;;
51852;SDS011;37894;53.172;6.598;2023-04-25T03:19:58;9.55;;;2.17;;
51852;SDS011;37894;53.172;6.598;2023-04-25T03:22:24;15.73;;;2.58;;
51852;SDS011;37894;53.172;6.598;2023-04-25T03:24:50;14.27;;;2.88;;
51852;SDS011;37894;53.172;6.598;2023-04-25T03:27:16;15.23;;;2.83;;
51852;SDS011;37894;53.172;6.598;2023-04-25T03:29:42;9.35;;;2.22;;
51852;SDS011;37894;53.172;6.598;2023-04-25T03:32:11;8.70;;;2.83;;
51852;SDS011;37894;53.172;6.598;2023-04-25T03:34:37;13.45;;;2.35;;
51852;SDS011;37894;53.172;6.598;2023-04-25T03:37:03;13.65;;;2.80;;
51852;SDS011;37894;53.172;6.598;2023-04-25T03:39:28;9.05;;;2.50;;
51852;SDS011;37894;53.172;6.598;2023-04-25T03:41:54;10.00;;;2.80;;
51852;SDS011;37894;53.172;6.598;2023-04-25T03:44:20;11.60;;;2.55;;
51852;SDS011;37894;53.172;6.598;2023-04-25T03:46:46;10.30;;;2.47;;
51852;SDS011;37894;53.172;6.598;2023-04-25T03:49:13;9.85;;;2.50;;
51852;SDS011;37894;53.172;6.598;2023-04-25T03:51:39;10.68;;;2.40;;
51852;SDS011;37894;53.172;6.598;2023-04-25T03:54:05;11.73;;;2.67;;
51852;SDS011;37894;53.172;6.598;2023-04-25T03:56:30;9.95;;;2.15;;
51852;SDS011;37894;53.172;6.598;2023-04-25T03:58:56;8.65;;;2.42;;
51852;SDS011;37894;53.172;6.598;2023-04-25T04:01:22;12.18;;;2.42;;
51852;SDS011;37894;53.172;6.598;2023-04-25T04:03:48;11.90;;;2.30;;
51852;SDS011;37894;53.172;6.598;2023-04-25T04:06:14;8.38;;;2.22;;
51852;SDS011;37894;53.172;6.598;2023-04-25T04:08:40;12.75;;;2.17;;
51852;SDS011;37894;53.172;6.598;2023-04-25T04:11:06;12.57;;;2.50;;
51852;SDS011;37894;53.172;6.598;2023-04-25T04:13:31;9.60;;;2.38;;
51852;SDS011;37894;53.172;6.598;2023-04-25T04:15:58;10.73;;;2.25;;
51852;SDS011;37894;53.172;6.598;2023-04-25T04:18:24;11.43;;;2.25;;
51852;SDS011;37894;53.172;6.598;2023-04-25T04:20:49;8.65;;;2.08;;
51852;SDS011;37894;53.172;6.598;2023-04-25T04:23:16;14.93;;;2.50;;
51852;SDS011;37894;53.172;6.598;2023-04-25T04:25:41;7.78;;;1.92;;
51852;SDS011;37894;53.172;6.598;2023-04-25T04:28:07;16.38;;;2.55;;
51852;SDS011;37894;53.172;6.598;2023-04-25T04:30:33;12.60;;;2.30;;
51852;SDS011;37894;53.172;6.598;2023-04-25T04:33:01;9.85;;;2.63;;
51852;SDS011;37894;53.172;6.598;2023-04-25T04:35:27;11.27;;;2.72;;
51852;SDS011;37894;53.172;6.598;2023-04-25T04:37:53;14.50;;;2.40;;
51852;SDS011;37894;53.172;6.598;2023-04-25T04:40:19;15.43;;;2.60;;
51852;SDS011;37894;53.172;6.598;2023-04-25T04:42:45;10.05;;;2.03;;
51852;SDS011;37894;53.172;6.598;2023-04-25T04:45:12;7.78;;;2.60;;
51852;SDS011;37894;53.172;6.598;2023-04-25T04:47:38;14.00;;;2.20;;
51852;SDS011;37894;53.172;6.598;2023-04-25T04:50:08;9.43;;;2.60;;
51852;SDS011;37894;53.172;6.598;2023-04-25T04:52:35;8.25;;;2.65;;
51852;SDS011;37894;53.172;6.598;2023-04-25T04:55:02;14.30;;;2.70;;
51852;SDS011;37894;53.172;6.598;2023-04-25T04:57:29;8.93;;;2.50;;
51852;SDS011;37894;53.172;6.598;2023-04-25T04:59:56;11.13;;;2.70;;
51852;SDS011;37894;53.172;6.598;2023-04-25T05:02:22;11.45;;;2.65;;
51852;SDS011;37894;53.172;6.598;2023-04-25T05:04:47;12.55;;;2.95;;
51852;SDS011;37894;53.172;6.598;2023-04-25T05:07:13;12.30;;;2.40;;
51852;SDS011;37894;53.172;6.598;2023-04-25T05:09:39;10.45;;;2.55;;
51852;SDS011;37894;53.172;6.598;2023-04-25T05:12:05;11.95;;;2.40;;
51852;SDS011;37894;53.172;6.598;2023-04-25T05:14:31;13.73;;;2.60;;
51852;SDS011;37894;53.172;6.598;2023-04-25T05:16:57;9.73;;;2.10;;
51852;SDS011;37894;53.172;6.598;2023-04-25T05:19:23;12.15;;;3.88;;
51852;SDS011;37894;53.172;6.598;2023-04-25T05:21:49;10.02;;;2.63;;
51852;SDS011;37894;53.172;6.598;2023-04-25T05:24:15;11.10;;;2.72;;
51852;SDS011;37894;53.172;6.598;2023-04-25T05:26:41;10.25;;;2.03;;
51852;SDS011;37894;53.172;6.598;2023-04-25T05:29:07;11.30;;;2.95;;
51852;SDS011;37894;53.172;6.598;2023-04-25T05:31:33;8.57;;;2.22;;
51852;SDS011;37894;53.172;6.598;2023-04-25T05:34:01;15.40;;;2.63;;
51852;SDS011;37894;53.172;6.598;2023-04-25T05:36:27;10.25;;;2.10;;
51852;SDS011;37894;53.172;6.598;2023-04-25T05:38:53;6.00;;;1.95;;
51852;SDS011;37894;53.172;6.598;2023-04-25T05:41:19;7.95;;;2.78;;
51852;SDS011;37894;53.172;6.598;2023-04-25T05:43:45;9.52;;;2.85;;
51852;SDS011;37894;53.172;6.598;2023-04-25T05:46:14;9.40;;;2.55;;
51852;SDS011;37894;53.172;6.598;2023-04-25T05:48:42;10.05;;;2.75;;
51852;SDS011;37894;53.172;6.598;2023-04-25T05:51:08;6.30;;;1.90;;
51852;SDS011;37894;53.172;6.598;2023-04-25T05:53:34;6.95;;;2.10;;
51852;SDS011;37894;53.172;6.598;2023-04-25T05:56:00;9.68;;;2.28;;
51852;SDS011;37894;53.172;6.598;2023-04-25T05:58:26;7.40;;;2.03;;
51852;SDS011;37894;53.172;6.598;2023-04-25T06:00:52;10.82;;;2.58;;
51852;SDS011;37894;53.172;6.598;2023-04-25T06:03:18;9.43;;;2.55;;
51852;SDS011;37894;53.172;6.598;2023-04-25T06:05:45;8.32;;;2.33;;
51852;SDS011;37894;53.172;6.598;2023-04-25T06:08:11;8.30;;;2.10;;
51852;SDS011;37894;53.172;6.598;2023-04-25T06:10:37;10.70;;;2.35;;
51852;SDS011;37894;53.172;6.598;2023-04-25T06:13:04;7.45;;;1.90;;
51852;SDS011;37894;53.172;6.598;2023-04-25T06:15:30;6.07;;;1.80;;
51852;SDS011;37894;53.172;6.598;2023-04-25T06:17:57;11.63;;;2.40;;
51852;SDS011;37894;53.172;6.598;2023-04-25T06:20:23;6.47;;;2.13;;
51852;SDS011;37894;53.172;6.598;2023-04-25T06:22:50;13.98;;;2.25;;
51852;SDS011;37894;53.172;6.598;2023-04-25T06:25:17;7.32;;;1.90;;
51852;SDS011;37894;53.172;6.598;2023-04-25T06:27:42;9.63;;;2.15;;
51852;SDS011;37894;53.172;6.598;2023-04-25T06:30:09;7.55;;;2.28;;
51852;SDS011;37894;53.172;6.598;2023-04-25T06:32:36;11.68;;;2.22;;
51852;SDS011;37894;53.172;6.598;2023-04-25T06:35:02;7.40;;;1.85;;
51852;SDS011;37894;53.172;6.598;2023-04-25T06:37:28;10.52;;;1.98;;
51852;SDS011;37894;53.172;6.598;2023-04-25T06:39:54;13.07;;;2.38;;
51852;SDS011;37894;53.172;6.598;2023-04-25T06:42:20;14.95;;;3.22;;
51852;SDS011;37894;53.172;6.598;2023-04-25T06:44:46;8.02;;;2.10;;
51852;SDS011;37894;53.172;6.598;2023-04-25T06:47:12;14.25;;;2.28;;
51852;SDS011;37894;53.172;6.598;2023-04-25T06:49:38;10.93;;;2.40;;
51852;SDS011;37894;53.172;6.598;2023-04-25T06:52:04;10.00;;;2.00;;
51852;SDS011;37894;53.172;6.598;2023-04-25T06:54:29;9.95;;;1.88;;
51852;SDS011;37894;53.172;6.598;2023-04-25T06:56:56;15.98;;;2.75;;
51852;SDS011;37894;53.172;6.598;2023-04-25T06:59:22;7.40;;;1.70;;
51852;SDS011;37894;53.172;6.598;2023-04-25T07:01:48;9.05;;;1.70;;
51852;SDS011;37894;53.172;6.598;2023-04-25T07:04:13;12.32;;;1.92;;
51852;SDS011;37894;53.172;6.598;2023-04-25T07:06:40;7.35;;;1.70;;
51852;SDS011;37894;53.172;6.598;2023-04-25T07:09:09;8.00;;;1.55;;
51852;SDS011;37894;53.172;6.598;2023-04-25T07:11:35;6.82;;;1.90;;
51852;SDS011;37894;53.172;6.598;2023-04-25T07:14:01;6.88;;;1.50;;
51852;SDS011;37894;53.172;6.598;2023-04-25T07:16:27;8.95;;;1.65;;
51852;SDS011;37894;53.172;6.598;2023-04-25T07:18:53;5.40;;;1.30;;
51852;SDS011;37894;53.172;6.598;2023-04-25T07:21:20;10.35;;;1.90;;
51852;SDS011;37894;53.172;6.598;2023-04-25T07:23:46;7.35;;;1.40;;
51852;SDS011;37894;53.172;6.598;2023-04-25T07:26:12;5.72;;;1.42;;
51852;SDS011;37894;53.172;6.598;2023-04-25T07:28:38;10.85;;;2.22;;
51852;SDS011;37894;53.172;6.598;2023-04-25T07:31:04;8.05;;;1.63;;
51852;SDS011;37894;53.172;6.598;2023-04-25T07:33:30;8.65;;;1.77;;
51852;SDS011;37894;53.172;6.598;2023-04-25T07:35:56;10.00;;;1.45;;
51852;SDS011;37894;53.172;6.598;2023-04-25T07:38:22;6.75;;;1.60;;
51852;SDS011;37894;53.172;6.598;2023-04-25T07:40:48;13.23;;;1.83;;
51852;SDS011;37894;53.172;6.598;2023-04-25T07:43:15;10.43;;;1.70;;
51852;SDS011;37894;53.172;6.598;2023-04-25T07:45:45;7.50;;;2.10;;
51852;SDS011;37894;53.172;6.598;2023-04-25T07:48:11;6.15;;;1.27;;
51852;SDS011;37894;53.172;6.598;2023-04-25T07:50:42;14.27;;;2.43;;
51852;SDS011;37894;53.172;6.598;2023-04-25T07:53:09;9.80;;;1.70;;
51852;SDS011;37894;53.172;6.598;2023-04-25T07:55:35;8.35;;;1.40;;
51852;SDS011;37894;53.172;6.598;2023-04-25T07:58:01;6.05;;;1.30;;
51852;SDS011;37894;53.172;6.598;2023-04-25T08:00:28;6.10;;;1.27;;
51852;SDS011;37894;53.172;6.598;2023-04-25T08:02:54;5.35;;;1.10;;
51852;SDS011;37894;53.172;6.598;2023-04-25T08:05:19;6.65;;;1.08;;
51852;SDS011;37894;53.172;6.598;2023-04-25T08:07:46;7.78;;;1.60;;
51852;SDS011;37894;53.172;6.598;2023-04-25T08:10:12;4.25;;;1.30;;
51852;SDS011;37894;53.172;6.598;2023-04-25T08:12:38;7.05;;;1.38;;
51852;SDS011;37894;53.172;6.598;2023-04-25T08:15:04;4.03;;;1.30;;
51852;SDS011;37894;53.172;6.598;2023-04-25T08:17:31;6.72;;;2.08;;
51852;SDS011;37894;53.172;6.598;2023-04-25T08:19:57;4.43;;;1.15;;
51852;SDS011;37894;53.172;6.598;2023-04-25T08:22:23;6.78;;;1.42;;
51852;SDS011;37894;53.172;6.598;2023-04-25T08:24:49;4.18;;;1.00;;
51852;SDS011;37894;53.172;6.598;2023-04-25T08:27:15;2.83;;;1.10;;
51852;SDS011;37894;53.172;6.598;2023-04-25T08:29:41;4.15;;;1.10;;
51852;SDS011;37894;53.172;6.598;2023-04-25T08:32:07;5.05;;;1.05;;
51852;SDS011;37894;53.172;6.598;2023-04-25T08:34:33;6.10;;;1.25;;
51852;SDS011;37894;53.172;6.598;2023-04-25T08:36:58;3.25;;;1.13;;
51852;SDS011;37894;53.172;6.598;2023-04-25T08:39:24;4.15;;;1.17;;
51852;SDS011;37894;53.172;6.598;2023-04-25T08:41:51;3.35;;;0.90;;
51852;SDS011;37894;53.172;6.598;2023-04-25T08:44:17;4.97;;;1.10;;
51852;SDS011;37894;53.172;6.598;2023-04-25T08:46:45;6.07;;;1.20;;
51852;SDS011;37894;53.172;6.598;2023-04-25T08:49:14;3.88;;;1.05;;
51852;SDS011;37894;53.172;6.598;2023-04-25T08:51:46;8.05;;;1.20;;
51852;SDS011;37894;53.172;6.598;2023-04-25T08:54:12;3.38;;;1.17;;
51852;SDS011;37894;53.172;6.598;2023-04-25T08:56:40;3.40;;;1.10;;
51852;SDS011;37894;53.172;6.598;2023-04-25T08:59:12;7.05;;;1.30;;
51852;SDS011;37894;53.172;6.598;2023-04-25T09:01:38;4.75;;;1.30;;
51852;SDS011;37894;53.172;6.598;2023-04-25T09:04:04;5.47;;;1.42;;
51852;SDS011;37894;53.172;6.598;2023-04-25T09:06:30;5.95;;;1.10;;
51852;SDS011;37894;53.172;6.598;2023-04-25T09:09:15;5.85;;;1.23;;
51852;SDS011;37894;53.172;6.598;2023-04-25T09:11:40;3.85;;;1.20;;
51852;SDS011;37894;53.172;6.598;2023-04-25T09:14:10;5.35;;;1.23;;
51852;SDS011;37894;53.172;6.598;2023-04-25T09:16:43;7.50;;;1.33;;
51852;SDS011;37894;53.172;6.598;2023-04-25T09:19:22;8.63;;;1.48;;
51852;SDS011;37894;53.172;6.598;2023-04-25T09:21:50;7.22;;;1.25;;
51852;SDS011;37894;53.172;6.598;2023-04-25T09:24:18;8.98;;;1.67;;
51852;SDS011;37894;53.172;6.598;2023-04-25T09:26:57;6.78;;;1.55;;
51852;SDS011;37894;53.172;6.598;2023-04-25T09:29:28;5.78;;;1.42;;
51852;SDS011;37894;53.172;6.598;2023-04-25T09:32:11;7.38;;;1.40;;
51852;SDS011;37894;53.172;6.598;2023-04-25T09:34:45;6.97;;;1.70;;
51852;SDS011;37894;53.172;6.598;2023-04-25T09:37:21;10.77;;;1.92;;
51852;SDS011;37894;53.172;6.598;2023-04-25T09:39:49;5.13;;;1.20;;
51852;SDS011;37894;53.172;6.598;2023-04-25T09:42:21;4.43;;;1.08;;
51852;SDS011;37894;53.172;6.598;2023-04-25T09:44:53;7.70;;;1.70;;
51852;SDS011;37894;53.172;6.598;2023-04-25T09:47:19;6.72;;;1.52;;
51852;SDS011;37894;53.172;6.598;2023-04-25T09:49:48;6.00;;;1.42;;
51852;SDS011;37894;53.172;6.598;2023-04-25T09:52:19;7.25;;;1.40;;
51852;SDS011;37894;53.172;6.598;2023-04-25T09:54:47;7.50;;;1.60;;
51852;SDS011;37894;53.172;6.598;2023-04-25T09:57:14;10.10;;;1.80;;
51852;SDS011;37894;53.172;6.598;2023-04-25T09:59:52;8.48;;;1.63;;
51852;SDS011;37894;53.172;6.598;2023-04-25T10:02:19;5.25;;;1.00;;
51852;SDS011;37894;53.172;6.598;2023-04-25T10:04:47;8.05;;;1.48;;
51852;SDS011;37894;53.172;6.598;2023-04-25T10:07:16;8.52;;;2.20;;
51852;SDS011;37894;53.172;6.598;2023-04-25T10:09:44;8.77;;;1.50;;
51852;SDS011;37894;53.172;6.598;2023-04-25T10:12:14;7.35;;;1.60;;
51852;SDS011;37894;53.172;6.598;2023-04-25T10:14:42;14.60;;;2.00;;
51852;SDS011;37894;53.172;6.598;2023-04-25T10:17:08;8.38;;;1.45;;
51852;SDS011;37894;53.172;6.598;2023-04-25T10:19:35;8.63;;;1.70;;
51852;SDS011;37894;53.172;6.598;2023-04-25T10:22:07;9.63;;;2.03;;
51852;SDS011;37894;53.172;6.598;2023-04-25T10:24:36;7.07;;;1.65;;
51852;SDS011;37894;53.172;6.598;2023-04-25T10:27:04;8.98;;;1.77;;
51852;SDS011;37894;53.172;6.598;2023-04-25T10:29:30;9.73;;;2.22;;
51852;SDS011;37894;53.172;6.598;2023-04-25T10:31:56;8.88;;;1.52;;
51852;SDS011;37894;53.172;6.598;2023-04-25T10:34:44;12.73;;;1.83;;
51852;SDS011;37894;53.172;6.598;2023-04-25T10:37:12;8.50;;;1.63;;
51852;SDS011;37894;53.172;6.598;2023-04-25T10:39:41;5.80;;;1.60;;
51852;SDS011;37894;53.172;6.598;2023-04-25T10:42:07;8.38;;;1.63;;
51852;SDS011;37894;53.172;6.598;2023-04-25T10:44:34;10.00;;;1.90;;
51852;SDS011;37894;53.172;6.598;2023-04-25T10:47:02;14.32;;;2.58;;
51852;SDS011;37894;53.172;6.598;2023-04-25T10:49:37;7.10;;;1.70;;
51852;SDS011;37894;53.172;6.598;2023-04-25T10:54:48;7.38;;;1.60;;
51852;SDS011;37894;53.172;6.598;2023-04-25T10:57:27;7.57;;;1.40;;
51852;SDS011;37894;53.172;6.598;2023-04-25T11:00:15;6.85;;;1.25;;
51852;SDS011;37894;53.172;6.598;2023-04-25T11:02:47;6.50;;;1.38;;
51852;SDS011;37894;53.172;6.598;2023-04-25T11:05:20;5.07;;;1.48;;
51852;SDS011;37894;53.172;6.598;2023-04-25T11:07:51;5.00;;;1.33;;
51852;SDS011;37894;53.172;6.598;2023-04-25T11:10:19;6.72;;;1.48;;
51852;SDS011;37894;53.172;6.598;2023-04-25T11:12:45;4.57;;;1.30;;
51852;SDS011;37894;53.172;6.598;2023-04-25T11:15:12;7.63;;;1.55;;
51852;SDS011;37894;53.172;6.598;2023-04-25T11:17:38;6.68;;;1.50;;
51852;SDS011;37894;53.172;6.598;2023-04-25T11:20:06;4.88;;;1.20;;
51852;SDS011;37894;53.172;6.598;2023-04-25T11:22:37;8.15;;;1.50;;
51852;SDS011;37894;53.172;6.598;2023-04-25T11:25:06;8.43;;;2.28;;
51852;SDS011;37894;53.172;6.598;2023-04-25T11:27:55;5.68;;;1.50;;
51852;SDS011;37894;53.172;6.598;2023-04-25T11:30:22;8.10;;;1.60;;
51852;SDS011;37894;53.172;6.598;2023-04-25T11:32:49;5.70;;;1.25;;
51852;SDS011;37894;53.172;6.598;2023-04-25T11:35:16;7.43;;;1.83;;
51852;SDS011;37894;53.172;6.598;2023-04-25T11:37:43;6.63;;;1.75;;
51852;SDS011;37894;53.172;6.598;2023-04-25T11:40:09;8.70;;;1.67;;
51852;SDS011;37894;53.172;6.598;2023-04-25T11:42:37;6.90;;;2.10;;
51852;SDS011;37894;53.172;6.598;2023-04-25T11:45:03;7.03;;;1.50;;
51852;SDS011;37894;53.172;6.598;2023-04-25T11:47:30;5.00;;;1.20;;
51852;SDS011;37894;53.172;6.598;2023-04-25T11:50:00;4.57;;;1.20;;
51852;SDS011;37894;53.172;6.598;2023-04-25T11:52:45;5.53;;;1.50;;
51852;SDS011;37894;53.172;6.598;2023-04-25T11:55:13;5.22;;;1.42;;
51852;SDS011;37894;53.172;6.598;2023-04-25T11:57:40;9.02;;;1.60;;
51852;SDS011;37894;53.172;6.598;2023-04-25T12:02:41;7.60;;;1.33;;
51852;SDS011;37894;53.172;6.598;2023-04-25T12:05:11;6.57;;;1.27;;
51852;SDS011;37894;53.172;6.598;2023-04-25T12:07:39;7.30;;;1.83;;
51852;SDS011;37894;53.172;6.598;2023-04-25T12:10:13;4.95;;;1.33;;
51852;SDS011;37894;53.172;6.598;2023-04-25T12:12:44;9.13;;;1.60;;
51852;SDS011;37894;53.172;6.598;2023-04-25T12:15:18;4.53;;;1.27;;
51852;SDS011;37894;53.172;6.598;2023-04-25T12:17:51;5.93;;;1.38;;
51852;SDS011;37894;53.172;6.598;2023-04-25T12:20:19;11.00;;;1.67;;
51852;SDS011;37894;53.172;6.598;2023-04-25T12:22:49;6.90;;;1.45;;
51852;SDS011;37894;53.172;6.598;2023-04-25T12:25:34;5.38;;;1.40;;
51852;SDS011;37894;53.172;6.598;2023-04-25T12:28:23;7.63;;;1.63;;
51852;SDS011;37894;53.172;6.598;2023-04-25T12:30:56;5.97;;;1.58;;
51852;SDS011;37894;53.172;6.598;2023-04-25T12:33:23;10.30;;;1.85;;
51852;SDS011;37894;53.172;6.598;2023-04-25T12:35:49;5.38;;;2.08;;
51852;SDS011;37894;53.172;6.598;2023-04-25T12:38:28;6.07;;;1.25;;
51852;SDS011;37894;53.172;6.598;2023-04-25T12:40:56;6.22;;;1.33;;
51852;SDS011;37894;53.172;6.598;2023-04-25T12:43:22;5.15;;;1.23;;
51852;SDS011;37894;53.172;6.598;2023-04-25T12:45:49;5.45;;;1.58;;
51852;SDS011;37894;53.172;6.598;2023-04-25T12:48:17;8.13;;;1.50;;
51852;SDS011;37894;53.172;6.598;2023-04-25T12:50:43;5.45;;;1.40;;
51852;SDS011;37894;53.172;6.598;2023-04-25T12:53:09;5.40;;;1.30;;
51852;SDS011;37894;53.172;6.598;2023-04-25T12:55:36;5.10;;;1.85;;
51852;SDS011;37894;53.172;6.598;2023-04-25T12:58:02;7.75;;;1.40;;
51852;SDS011;37894;53.172;6.598;2023-04-25T13:00:29;7.47;;;1.73;;
51852;SDS011;37894;53.172;6.598;2023-04-25T13:02:55;5.30;;;1.00;;
51852;SDS011;37894;53.172;6.598;2023-04-25T13:05:21;4.05;;;1.00;;
51852;SDS011;37894;53.172;6.598;2023-04-25T13:07:47;4.57;;;1.27;;
51852;SDS011;37894;53.172;6.598;2023-04-25T13:10:12;7.32;;;1.80;;
51852;SDS011;37894;53.172;6.598;2023-04-25T13:12:38;7.63;;;1.30;;
51852;SDS011;37894;53.172;6.598;2023-04-25T13:15:04;6.68;;;1.60;;
51852;SDS011;37894;53.172;6.598;2023-04-25T13:17:30;7.32;;;1.83;;
51852;SDS011;37894;53.172;6.598;2023-04-25T13:19:56;6.57;;;1.40;;
51852;SDS011;37894;53.172;6.598;2023-04-25T13:22:22;9.00;;;1.65;;
51852;SDS011;37894;53.172;6.598;2023-04-25T13:24:47;8.20;;;1.42;;
51852;SDS011;37894;53.172;6.598;2023-04-25T13:27:13;6.35;;;1.73;;
51852;SDS011;37894;53.172;6.598;2023-04-25T13:29:39;8.43;;;1.70;;
51852;SDS011;37894;53.172;6.598;2023-04-25T13:32:05;6.65;;;1.60;;
51852;SDS011;37894;53.172;6.598;2023-04-25T13:34:31;10.02;;;1.80;;
51852;SDS011;37894;53.172;6.598;2023-04-25T13:36:58;7.32;;;1.50;;
51852;SDS011;37894;53.172;6.598;2023-04-25T13:39:25;7.93;;;2.13;;
51852;SDS011;37894;53.172;6.598;2023-04-25T13:41:51;8.57;;;1.98;;
51852;SDS011;37894;53.172;6.598;2023-04-25T13:44:17;5.03;;;1.50;;
51852;SDS011;37894;53.172;6.598;2023-04-25T13:46:43;7.80;;;1.83;;
51852;SDS011;37894;53.172;6.598;2023-04-25T13:49:11;5.63;;;1.40;;
51852;SDS011;37894;53.172;6.598;2023-04-25T13:51:37;6.53;;;1.33;;
51852;SDS011;37894;53.172;6.598;2023-04-25T13:54:03;5.00;;;1.40;;
51852;SDS011;37894;53.172;6.598;2023-04-25T13:56:29;3.58;;;1.30;;
51852;SDS011;37894;53.172;6.598;2023-04-25T13:58:55;4.53;;;1.38;;
51852;SDS011;37894;53.172;6.598;2023-04-25T14:01:21;3.28;;;1.00;;
51852;SDS011;37894;53.172;6.598;2023-04-25T14:03:47;8.63;;;1.58;;
51852;SDS011;37894;53.172;6.598;2023-04-25T14:06:13;4.70;;;1.70;;
51852;SDS011;37894;53.172;6.598;2023-04-25T14:08:42;5.13;;;1.60;;
51852;SDS011;37894;53.172;6.598;2023-04-25T14:11:07;7.45;;;1.42;;
51852;SDS011;37894;53.172;6.598;2023-04-25T14:13:33;9.18;;;1.45;;
51852;SDS011;37894;53.172;6.598;2023-04-25T14:15:59;7.75;;;1.63;;
51852;SDS011;37894;53.172;6.598;2023-04-25T14:18:26;5.25;;;1.50;;
51852;SDS011;37894;53.172;6.598;2023-04-25T14:20:52;7.25;;;1.77;;
51852;SDS011;37894;53.172;6.598;2023-04-25T14:23:18;4.82;;;1.60;;
51852;SDS011;37894;53.172;6.598;2023-04-25T14:25:44;8.70;;;1.95;;
51852;SDS011;37894;53.172;6.598;2023-04-25T14:28:10;11.57;;;1.98;;
51852;SDS011;37894;53.172;6.598;2023-04-25T14:30:36;7.28;;;2.00;;
51852;SDS011;37894;53.172;6.598;2023-04-25T14:33:02;7.28;;;1.92;;
51852;SDS011;37894;53.172;6.598;2023-04-25T14:35:28;5.65;;;1.40;;
51852;SDS011;37894;53.172;6.598;2023-04-25T14:37:55;4.03;;;1.17;;
51852;SDS011;37894;53.172;6.598;2023-04-25T14:40:21;7.13;;;1.40;;
51852;SDS011;37894;53.172;6.598;2023-04-25T14:42:48;6.30;;;1.45;;
51852;SDS011;37894;53.172;6.598;2023-04-25T14:45:16;5.53;;;1.30;;
51852;SDS011;37894;53.172;6.598;2023-04-25T14:47:42;11.52;;;1.92;;
51852;SDS011;37894;53.172;6.598;2023-04-25T14:50:09;7.25;;;1.90;;